Station: Badgingarra  

  Atmospheric Gas Attenuation - ITU Rec 676-11   ----------------- dB/100km -----------------
Date Time Temp RH % AH g/m3 Dew Point Wind Direction Speed kph Gust kph Barometer mB Rainfall Since 9am 24GHz 47GHz 76GHz 122GHz 134GHz 241GHz
05/05 11:50 21.4 40 7.5 7.2 9 15 1013.1 0 16.9 22.2 32.3 84.5 76.5 262.6
05/05 11:40 21.3 41 7.64 7.5 17 22 1013.1 0 17.2 22.4 32.8 85.9 78.2 268.6
05/05 11:30 21.3 41 7.64 7.5 15 20 1013.1 0 17.2 22.4 32.8 85.9 78.2 268.6
05/05 11:20 21 43 7.88 7.9 17 19 1013.1 0 17.7 22.9 33.8 88.5 81.3 279.3
05/05 11:10 21 43 7.88 7.9 17 20 1013.1 0 17.7 22.9 33.8 88.5 81.3 279.3
05/05 11:00 21 46 8.43 8.9 17 26 1013.1 0 18.9 23.7 35.8 93.8 87.7 302.1
05/05 10:50 20.2 43 7.52 7.5 17 22 1013.1 0 17.0 22.5 32.8 86.0 77.9 267.3
05/05 10:40 20 46 7.95 8 20 24 1013.1 0 17.9 23.2 34.5 90.3 83.1 285.7
05/05 10:30 19.9 48 8.25 8.6 20 28 1013.1 0 18.6 23.7 35.6 93.3 86.8 298.6
05/05 10:20 19.7 49 8.32 8.7 17 20 1013.1 0 18.7 23.8 35.9 94.2 87.9 302.3
05/05 10:10 19.1 50 8.2 8.4 20 24 1013.1 0 18.5 23.8 35.8 93.7 87.1 299.5
05/05 10:00 18.9 52 8.42 8.8 22 30 1013.1 0 19.0 24.2 36.7 96.1 90.0 309.6
05/05 09:50 18.2 52 8.08 8.2 20 22 1013.1 0 18.3 23.9 35.7 93.6 86.6 297.7
05/05 09:40 18.3 54 8.44 8.8 17 19 1013.1 0 19.0 24.4 37.0 97.1 90.9 312.8
05/05 09:30 17.3 55 8.1 8.2 28 35 1013.1 0 18.4 24.1 36.2 94.9 87.8 301.9
05/05 09:20 17 57 8.25 8.4 24 26 1013.1 0 18.7 24.4 36.9 96.7 90.0 309.6
05/05 09:10 16.6 58 8.19 8.3 24 28 1013.1 0 18.6 24.5 36.8 96.6 89.7 308.5
05/05 09:00 16 59 8.04 8 24 33 1013.1 0 18.3 24.4 36.5 95.8 88.5 304.3
05/05 08:50 15.6 61 8.11 8.1 24 28 1013.1 0 18.5 24.6 37.0 97.0 89.9 308.9
05/05 08:40 15.2 61 7.92 7.9 26 32 1013.1 0 18.1 24.4 36.5 95.5 87.9 302.0
05/05 08:30 15 62 7.95 7.8 20 30 1013.1 0 18.1 24.5 36.7 96.1 88.5 304.1
05/05 08:20 14.6 65 8.13 8.1 17 20 1013.1 0 18.5 24.9 37.5 98.4 91.3 313.7
05/05 08:10 13.9 66 7.91 7.6 20 26 1013.1 0 18.1 24.8 37.0 97.0 89.3 306.6
05/05 08:00 13.5 67 7.84 7.5 19 30 1013.1 0 18.0 24.8 36.9 96.8 88.8 304.9
05/05 07:50 13.3 67 7.74 7.3 17 20 1013.1 0 17.8 24.7 36.6 96.0 87.8 301.2
05/05 07:40 13.3 67 7.74 7.3 20 24 1013.1 0 17.8 24.7 36.6 96.0 87.8 301.2
05/05 07:30 13.2 67 7.69 7.2 26 39 1013.1 0 17.7 24.6 36.5 95.6 87.2 299.3
05/05 07:20 13.1 68 7.76 7.3 30 33 1013.1 0 17.8 24.7 36.8 96.4 88.3 302.9
05/05 07:10 12.7 69 7.68 7.1 26 32 1013.1 0 17.7 24.7 36.7 96.1 87.7 300.8
05/05 07:00 12.6 70 7.74 7.3 32 39 1013.1 0 17.8 24.8 36.9 96.8 88.6 303.9
05/05 06:50 12.3 71 7.71 7.2 32 35 1013.1 0 17.8 24.9 37.0 96.9 88.5 303.7
05/05 06:40 12.2 71 7.66 7.1 30 32 1013.1 0 17.7 24.8 36.8 96.5 88.0 301.8
05/05 06:30 12.4 70 7.65 7.1 22 32 1013.1 0 17.6 24.8 36.7 96.1 87.6 300.5
05/05 06:20 12.5 69 7.59 7.1 28 32 1013.1 0 17.5 24.6 36.4 95.4 86.7 297.4
05/05 06:10 12.4 68 7.43 6.8 19 28 1013.1 0 17.2 24.4 35.8 93.8 84.8 290.6
05/05 06:00 12.5 69 7.59 7 17 24 1013.1 0 17.5 24.6 36.4 95.4 86.7 297.4
05/05 05:50 12.7 69 7.68 7.1 19 20 1013.1 0 17.7 24.7 36.7 96.1 87.7 300.8
05/05 05:40 12.4 68 7.43 6.8 13 19 1013.1 0 17.2 24.4 35.8 93.8 84.8 290.6
05/05 05:30 12.4 70 7.65 7.1 17 22 1013.1 0 17.6 24.8 36.7 96.1 87.6 300.5
05/05 05:20 12.5 68 7.48 6.9 17 19 1013.1 0 17.3 24.5 36.0 94.2 85.3 292.5
05/05 05:10 12.5 68 7.48 6.9 20 24 1013.1 0 17.3 24.5 36.0 94.2 85.3 292.5
05/05 05:00 12.6 69 7.63 7.1 24 33 1013.1 0 17.6 24.7 36.5 95.7 87.1 298.9
05/05 04:50 12.4 69 7.54 7 24 30 1013.1 0 17.4 24.6 36.2 95.0 86.2 295.5
05/05 04:40 12.1 71 7.61 7 24 30 1013.1 0 17.6 24.8 36.7 96.1 87.4 299.9
05/05 04:30 12.4 70 7.65 7.1 24 32 1013.1 0 17.6 24.8 36.7 96.1 87.6 300.5
05/05 04:20 12.7 69 7.68 7.1 24 26 1013.1 0 17.7 24.7 36.7 96.1 87.7 300.8
05/05 04:10 13 69 7.83 7.4 26 32 1013.1 0 18.0 24.9 37.1 97.3 89.3 306.4
05/05 04:00 13.1 68 7.76 7.3 28 37 1013.1 0 17.8 24.7 36.8 96.4 88.3 302.9
05/05 03:50 13.1 69 7.87 7.5 32 39 1013.1 0 18.1 24.9 37.2 97.6 89.7 307.9
05/05 03:40 12.8 69 7.73 7.2 28 32 1013.1 0 17.8 24.8 36.8 96.5 88.2 302.7
05/05 03:30 12.8 69 7.73 7.3 26 32 1013.1 0 17.8 24.8 36.8 96.5 88.2 302.7
05/05 03:20 12.7 69 7.68 7.3 22 30 1013.1 0 17.7 24.7 36.7 96.1 87.7 300.8
05/05 03:10 12.9 69 7.78 7.3 22 26 1013.1 0 17.9 24.8 37.0 96.9 88.7 304.5
05/05 03:00 13.2 68 7.81 7.4 22 30 1013.1 0 17.9 24.8 36.9 96.8 88.8 304.7
05/05 02:50 13 68 7.71 7.2 20 24 1013.1 0 17.7 24.7 36.6 96.0 87.7 301.0
05/05 02:40 12.9 68 7.66 7.1 20 24 1013.1 0 17.6 24.6 36.5 95.6 87.2 299.1
05/05 02:30 12.9 68 7.66 7.1 20 28 1013.1 0 17.6 24.6 36.5 95.6 87.2 299.1
05/05 02:20 13.2 67 7.69 7.2 22 26 1013.1 0 17.7 24.6 36.5 95.6 87.2 299.3
05/05 02:10 13.2 67 7.69 7.2 19 24 1013.1 0 17.7 24.6 36.5 95.6 87.2 299.3
05/05 02:00 13.3 67 7.74 7.3 22 30 1013.1 0 17.8 24.7 36.6 96.0 87.8 301.2
05/05 01:50 13.3 67 7.74 7.3 22 26 1013.1 0 17.8 24.7 36.6 96.0 87.8 301.2
05/05 01:40 13.4 65 7.56 7.1 24 28 1013.1 0 17.4 24.3 35.9 94.0 85.3 292.7
05/05 01:30 13.5 66 7.72 7.3 26 33 1013.1 0 17.7 24.6 36.5 95.5 87.3 299.5
05/05 01:20 13.6 65 7.65 7.3 28 30 1013.1 0 17.6 24.4 36.1 94.7 86.3 296.0
05/05 01:10 13.7 65 7.7 7.2 26 32 1013.1 0 17.7 24.5 36.3 95.1 86.8 297.9
05/05 01:00 13.6 65 7.65 7.2 24 33 1013.1 0 17.6 24.4 36.1 94.7 86.3 296.0
05/05 00:50 13.5 65 7.6 7.2 24 26 1013.1 0 17.5 24.4 36.0 94.3 85.7 294.2
05/05 00:40 13.7 65 7.7 7.2 28 30 1013.1 0 17.7 24.5 36.3 95.1 86.8 297.9
05/05 00:30 14 64 7.72 7.3 30 39 1013.1 0 17.7 24.4 36.2 94.9 86.7 297.7
05/05 00:20 14.2 62 7.57 7 30 39 1013.1 0 17.4 24.1 35.6 93.1 84.6 290.2
05/05 00:10 14.2 62 7.57 7 28 33 1013.1 0 17.4 24.1 35.6 93.1 84.6 290.2
05/05 00:00 14.2 62 7.57 7 26 37 1013.1 0 17.4 24.1 35.6 93.1 84.6 290.2
04/05 23:50 14.1 62 7.52 7.1 24 30 1013.1 0 17.3 24.1 35.4 92.7 84.1 288.4
04/05 23:40 14.1 62 7.52 7.1 26 32 1013.1 0 17.3 24.1 35.4 92.7 84.1 288.4
04/05 23:30 14.2 62 7.57 7 22 32 1013.1 0 17.4 24.1 35.6 93.1 84.6 290.2
04/05 23:20 14.2 62 7.57 7 20 24 1013.1 0 17.4 24.1 35.6 93.1 84.6 290.2
04/05 23:10 14.4 60 7.42 6.9 22 24 1013.1 0 17.0 23.9 34.9 91.4 82.5 282.9
04/05 23:00 14.3 62 7.62 7.1 20 28 1013.1 0 17.5 24.2 35.7 93.5 85.1 292.1
04/05 22:50 14.1 62 7.52 7.1 19 22 1013.1 0 17.3 24.1 35.4 92.7 84.1 288.4
04/05 22:40 14.2 63 7.69 7.2 19 20 1013.1 0 17.6 24.3 36.0 94.4 86.1 295.6
04/05 22:30 13.9 63 7.55 7 19 22 1013.1 0 17.3 24.2 35.6 93.3 84.7 290.5
04/05 22:20 14 62 7.48 7 19 26 1013.1 0 17.2 24.1 35.3 92.5 83.7 287.0
04/05 22:10 13.9 62 7.43 6.9 19 22 1013.1 0 17.1 24.0 35.2 92.1 83.2 285.1
04/05 22:00 13.8 64 7.63 7.1 17 22 1013.1 0 17.5 24.3 36.0 94.2 85.8 294.4
04/05 21:50 14.1 62 7.52 7.1 19 20 1013.1 0 17.3 24.1 35.4 92.7 84.1 288.4
04/05 21:40 14 62 7.48 7 20 22 1013.1 0 17.2 24.1 35.3 92.5 83.7 287.0
04/05 21:30 14.3 62 7.62 7.1 17 22 1013.1 0 17.5 24.2 35.7 93.5 85.1 292.1
04/05 21:20 14.4 60 7.42 6.7 19 22 1013.1 0 17.0 23.9 34.9 91.4 82.5 282.9
04/05 21:10 15.4 57 7.49 6.9 20 24 1013.1 0 17.2 23.7 34.7 90.9 82.3 282.4
04/05 21:00 15.5 57 7.53 7 19 28 1013.1 0 17.2 23.7 34.8 91.2 82.7 283.8
04/05 20:50 15.6 56 7.45 6.8 20 22 1013.1 0 17.1 23.6 34.5 90.3 81.6 280.0
04/05 20:40 15.5 57 7.53 7 19 20 1013.1 0 17.2 23.7 34.8 91.2 82.7 283.8
04/05 20:30 15.3 57 7.44 6.8 17 20 1013.1 0 17.1 23.7 34.6 90.6 81.8 280.6
04/05 20:20 15.6 56 7.45 6.8 19 22 1013.1 0 17.1 23.6 34.5 90.3 81.6 280.0
04/05 20:10 15.7 56 7.49 6.9 17 19 1013.1 0 17.1 23.6 34.6 90.6 82.0 281.4
04/05 20:00 15.9 56 7.58 7.1 17 22 1013.1 0 17.3 23.7 34.9 91.3 82.9 284.6
04/05 19:50 15.4 57 7.49 6.9 13 17 1013.1 0 17.2 23.7 34.7 90.9 82.3 282.4
04/05 19:40 15.9 54 7.31 6.8 15 17 1013.1 0 16.8 23.3 33.8 88.6 79.6 272.9
04/05 19:30 16.3 54 7.49 7 15 19 1013.1 0 17.1 23.5 34.3 89.9 81.4 279.3
04/05 19:20 16.1 54 7.4 7 15 17 1013.1 0 16.9 23.4 34.1 89.3 80.5 276.1

Last Refresh: 05-May-2026 13:31:11

Bureau of Meteorology